Elkhart Lake, Wisconsin
Current Conditions -  °F | °C
As of 3:53 PM on Tuesday 25 Nov 2014 (Local Time) from KSBM Reporting Station
Overcast Overcast  
Wind Chill: 13°   Ceiling: 1700
Heat Index: 22°   Visibility: 10mi
Dew Point: 15°   Wind: 7mph
Humidity: 75%   Direction: 300°WNW
Pressure: 30.11"   Gusts: NA
Location:  43.83°N, 88.02°W
Report Text: KSBM 252153Z AUTO 30006KT 10SM OVC017 M06/M09 A3011 RMK AO2 SLP207 T10561094
Loading
Personal Weather Stations






























Interactive Weather Map New forecast layout! Learn more

10-Day Weather Forecast

Advertisements
Track Severe Weather on mobile